Time;durP1;ratioP1;P1;durP2;ratioP2;P2;SDS_P1;SDS_P2;PMS_P1;PMS_P2;Temp;Humidity;BMP_temperature;BMP_pressure;BME280_temperature;BME280_humidity;BME280_pressure;Samples;Min_cycle;Max_cycle;Signal;HPM_P1;HPM_P2
2021/04/11 00:00:37;;;;;;;86.43;48.13;;;1.80;82.40;;;;;;5051958;28;20025;-79
2021/04/11 00:03:05;;;;;;;88.30;48.53;;;1.90;82.10;;;;;;5053543;28;20025;-79
2021/04/11 00:05:34;;;;;;;95.57;51.80;;;1.90;82.00;;;;;;5051765;28;20087;-79
2021/04/11 00:08:01;;;;;;;91.05;50.55;;;1.90;83.20;;;;;;5051824;28;20105;-79
2021/04/11 00:10:31;;;;;;;100.18;54.25;;;1.80;82.70;;;;;;5052043;28;20021;-79
2021/04/11 00:12:58;;;;;;;96.60;53.72;;;1.80;82.60;;;;;;5051966;28;20020;-79
2021/04/11 00:15:24;;;;;;;93.70;51.33;;;1.80;82.80;;;;;;5053450;28;20379;-79
2021/04/11 00:17:50;;;;;;;101.70;55.90;;;1.70;82.70;;;;;;5052011;28;20021;-79
2021/04/11 00:20:16;;;;;;;103.05;56.28;;;1.70;83.00;;;;;;5051822;28;20502;-79
2021/04/11 00:22:43;;;;;;;96.55;53.42;;;1.60;83.30;;;;;;5053731;28;20036;-79
2021/04/11 00:25:11;;;;;;;96.60;53.47;;;1.60;82.90;;;;;;5052793;28;20036;-79
2021/04/11 00:27:37;;;;;;;111.70;60.47;;;1.60;82.70;;;;;;5051386;28;20032;-79
2021/04/11 00:30:04;;;;;;;114.53;59.60;;;1.50;82.90;;;;;;5051765;28;20025;-79
2021/04/11 00:32:30;;;;;;;109.80;59.22;;;1.50;82.80;;;;;;5051385;28;20497;-79
2021/04/11 00:34:56;;;;;;;112.07;59.67;;;1.50;82.80;;;;;;5052110;28;20028;-79
2021/04/11 00:37:22;;;;;;;121.03;63.85;;;1.50;82.80;;;;;;5055249;28;20067;-79
2021/04/11 00:39:47;;;;;;;112.20;58.15;;;1.50;83.60;;;;;;5056558;28;20040;-80
2021/04/11 00:42:20;;;;;;;116.53;57.70;;;1.40;83.20;;;;;;5054737;28;20036;-79
2021/04/11 00:44:46;;;;;;;104.88;55.10;;;1.40;82.90;;;;;;5056009;28;20113;-79
2021/04/11 00:47:12;;;;;;;101.72;52.08;;;1.50;82.60;;;;;;5056189;28;20754;-79
2021/04/11 00:49:41;;;;;;;105.93;53.17;;;1.50;82.50;;;;;;5054984;28;20029;-79
2021/04/11 00:52:09;;;;;;;104.95;50.42;;;1.50;82.30;;;;;;5054532;28;20025;-79
2021/04/11 00:54:36;;;;;;;92.25;47.20;;;1.50;82.30;;;;;;5054649;28;20021;-79
2021/04/11 00:57:02;;;;;;;111.38;54.75;;;1.50;82.40;;;;;;5054585;28;20031;-79
2021/04/11 00:59:29;;;;;;;90.75;47.50;;;1.50;83.00;;;;;;5054412;28;20075;-79
2021/04/11 01:01:54;;;;;;;103.78;49.03;;;1.50;83.10;;;;;;5054348;28;20468;-79
2021/04/11 01:04:20;;;;;;;91.65;46.75;;;1.40;83.20;;;;;;5055838;28;20045;-79
2021/04/11 01:06:54;;;;;;;103.20;51.47;;;1.40;83.30;;;;;;5054441;28;20029;-80
2021/04/11 01:09:31;;;;;;;92.20;49.10;;;1.40;84.00;;;;;;5055718;28;20021;-80
2021/04/11 01:12:00;;;;;;;93.18;48.13;;;1.30;84.20;;;;;;5054293;28;20486;-80
2021/04/11 01:14:29;;;;;;;89.70;48.05;;;1.20;84.10;;;;;;5054326;28;20351;-79
2021/04/11 01:16:56;;;;;;;93.53;47.78;;;1.20;84.20;;;;;;5054025;28;20028;-79
2021/04/11 01:19:26;;;;;;;85.80;46.58;;;1.20;84.60;;;;;;5054424;28;20040;-79
2021/04/11 01:21:56;;;;;;;;;;;1.10;84.50;;;;;;5055457;28;20063;-79
2021/04/11 01:24:42;;;;;;;75.63;40.10;;;1.00;84.80;;;;;;5054279;28;20338;-79
2021/04/11 01:27:11;;;;;;;80.07;40.85;;;1.10;84.20;;;;;;5054097;28;20490;-79
2021/04/11 01:29:39;;;;;;;77.93;39.58;;;1.10;84.00;;;;;;5054248;28;20029;-79
2021/04/11 01:32:07;;;;;;;73.38;40.88;;;1.10;83.90;;;;;;5055240;28;20071;-79
2021/04/11 01:34:32;;;;;;;79.35;41.22;;;1.10;83.80;;;;;;5054141;28;20028;-79
2021/04/11 01:36:59;;;;;;;71.13;38.33;;;1.10;84.00;;;;;;5055038;28;20021;-79
2021/04/11 01:39:31;;;;;;;77.65;39.22;;;1.20;84.00;;;;;;5053862;28;20112;-79
2021/04/11 01:41:57;;;;;;;78.85;37.22;;;1.10;83.90;;;;;;5053875;28;20454;-78
2021/04/11 01:44:29;;;;;;;72.68;38.88;;;1.10;83.70;;;;;;5055076;28;20111;-80
2021/04/11 01:46:56;;;;;;;79.82;39.63;;;1.10;84.20;;;;;;5053034;28;20025;-79
2021/04/11 01:49:23;;;;;;;79.15;38.17;;;1.10;84.20;;;;;;5053626;28;20116;-79
2021/04/11 01:52:04;;;;;;;84.93;38.30;;;1.10;84.10;;;;;;5054046;28;20021;-79
2021/04/11 01:54:32;;;;;;;89.95;40.67;;;1.10;83.80;;;;;;5053591;28;20021;-79
2021/04/11 01:57:03;;;;;;;88.60;42.28;;;1.10;83.70;;;;;;5053439;28;20033;-79
2021/04/11 01:59:29;;;;;;;94.95;45.60;;;1.10;83.90;;;;;;5053295;28;20475;-79
2021/04/11 02:01:55;;;;;;;106.70;50.40;;;1.10;84.00;;;;;;5054612;28;20087;-79
2021/04/11 02:04:22;;;;;;;119.53;56.70;;;1.10;84.10;;;;;;5053173;28;20076;-79
2021/04/11 02:06:52;;;;;;;120.60;56.47;;;1.10;84.30;;;;;;5053292;28;20464;-79
2021/04/11 02:09:25;;;;;;;118.00;59.75;;;1.10;84.20;;;;;;5053240;28;20378;-79
2021/04/11 02:11:51;;;;;;;117.63;59.72;;;1.10;84.50;;;;;;5053254;28;20021;-79
2021/04/11 02:14:17;;;;;;;115.25;57.95;;;1.10;84.70;;;;;;5053155;28;20079;-79
2021/04/11 02:16:44;;;;;;;133.80;61.92;;;1.00;84.90;;;;;;5053090;28;20021;-80
2021/04/11 02:19:19;;;;;;;125.13;60.40;;;1.00;85.00;;;;;;5053133;28;20056;-79
2021/04/11 02:21:52;;;;;;;117.53;56.58;;;1.00;85.20;;;;;;5054014;28;20029;-79
2021/04/11 02:24:18;;;;;;;111.85;55.00;;;1.00;85.20;;;;;;5053182;28;20063;-79
2021/04/11 02:26:44;;;;;;;103.88;53.22;;;0.90;85.20;;;;;;5054537;28;20033;-79
2021/04/11 02:29:16;;;;;;;110.75;53.85;;;0.90;85.00;;;;;;5053869;28;20459;-80
2021/04/11 02:31:42;;;;;;;99.47;51.03;;;0.90;85.10;;;;;;5053411;28;20170;-80
2021/04/11 02:34:14;;;;;;;103.75;51.95;;;0.90;85.00;;;;;;5054549;28;20531;-80
2021/04/11 02:36:44;;;;;;;113.70;56.78;;;0.90;85.20;;;;;;5053069;28;20033;-80
2021/04/11 02:39:16;;;;;;;133.45;65.78;;;0.90;85.30;;;;;;5053143;28;20078;-80
2021/04/11 02:41:43;;;;;;;168.77;76.38;;;0.90;85.60;;;;;;5052998;28;20083;-80
2021/04/11 02:44:09;;;;;;;149.98;70.55;;;0.80;85.60;;;;;;5053026;28;20025;-80
2021/04/11 02:46:36;;;;;;;147.85;70.97;;;0.80;85.60;;;;;;5053182;28;20083;-80
2021/04/11 02:49:04;;;;;;;132.50;63.95;;;0.70;85.70;;;;;;5053567;28;20032;-80
2021/04/11 02:51:33;;;;;;;121.18;59.45;;;0.70;86.10;;;;;;5054191;28;20045;-80
2021/04/11 02:54:01;;;;;;;122.85;58.95;;;0.70;85.90;;;;;;5054270;28;20053;-80
2021/04/11 02:56:28;;;;;;;111.70;55.33;;;0.60;86.10;;;;;;5052749;28;20025;-79
2021/04/11 02:58:54;;;;;;;99.22;48.70;;;0.60;86.10;;;;;;5051915;28;20029;-79
2021/04/11 03:01:34;;;;;;;96.70;47.45;;;0.60;86.20;;;;;;5052716;28;20074;-79
2021/04/11 03:04:00;;;;;;;93.63;42.73;;;0.60;86.00;;;;;;5052595;28;20132;-79
2021/04/11 03:06:35;;;;;;;85.68;43.15;;;0.60;85.80;;;;;;5052615;28;20029;-79
2021/04/11 03:09:07;;;;;;;100.07;49.28;;;0.60;85.80;;;;;;5052565;28;20020;-79
2021/04/11 03:11:37;;;;;;;104.72;49.60;;;0.60;86.50;;;;;;5052546;28;20029;-79
2021/04/11 03:14:04;;;;;;;89.18;44.45;;;0.60;86.50;;;;;;5052428;28;20128;-79
2021/04/11 03:16:33;;;;;;;91.45;45.25;;;0.50;86.70;;;;;;5053593;28;20483;-79
2021/04/11 03:19:00;;;;;;;84.72;42.83;;;0.50;86.40;;;;;;5053619;28;20037;-79
2021/04/11 03:21:26;;;;;;;87.80;43.85;;;0.50;86.50;;;;;;5052469;28;20079;-80
2021/04/11 03:23:53;;;;;;;83.70;41.67;;;0.50;86.60;;;;;;5053315;28;20031;-80
2021/04/11 03:26:22;;;;;;;84.28;39.88;;;0.50;86.60;;;;;;5051919;28;20475;-80
2021/04/11 03:29:27;;;;;;;82.57;39.53;;;0.50;86.40;;;;;;5052111;28;20063;-80
2021/04/11 03:32:09;;;;;;;81.25;39.72;;;0.50;86.10;;;;;;5026052;28;20030;-80
2021/04/11 03:34:37;;;;;;;80.80;40.00;;;0.50;86.30;;;;;;5033254;28;20072;-79
2021/04/11 03:37:07;;;;;;;78.43;40.30;;;0.60;86.10;;;;;;5048691;28;20025;-80
2021/04/11 03:39:34;;;;;;;85.75;42.00;;;0.60;86.10;;;;;;5048571;28;20065;-79
2021/04/11 03:42:08;;;;;;;84.97;42.38;;;0.70;85.80;;;;;;5048610;28;20383;-79
2021/04/11 03:44:35;;;;;;;85.28;44.38;;;0.70;85.80;;;;;;5031850;28;20044;-80
2021/04/11 03:47:26;;;;;;;101.18;46.08;;;0.70;86.00;;;;;;5031816;28;20026;-80
2021/04/11 03:50:13;;;;;;;94.30;46.00;;;0.80;86.10;;;;;;5051766;28;20043;-80
2021/04/11 03:52:56;;;;;;;106.15;53.15;;;0.80;86.10;;;;;;5051459;28;20483;-80
2021/04/11 03:55:25;;;;;;;129.50;59.25;;;0.80;86.90;;;;;;5053000;28;20405;-80
2021/04/11 03:57:56;;;;;;;137.45;65.97;;;0.80;86.60;;;;;;5051583;28;20044;-80
2021/04/11 04:00:29;;;;;;;122.45;59.72;;;0.70;87.30;;;;;;5051649;28;20025;-80
2021/04/11 04:03:02;;;;;;;113.40;58.63;;;0.70;87.70;;;;;;5051698;28;20029;-80
2021/04/11 04:05:29;;;;;;;124.25;61.38;;;0.70;87.70;;;;;;5051601;28;20124;-80
2021/04/11 04:07:57;;;;;;;123.07;61.50;;;0.70;87.90;;;;;;5051714;28;20112;-80
2021/04/11 04:10:31;;;;;;;104.05;52.05;;;0.70;89.00;;;;;;5054179;28;20021;-79
2021/04/11 04:13:19;;;;;;;105.00;52.28;;;0.80;87.90;;;;;;5055507;28;20075;-79
2021/04/11 04:16:03;;;;;;;102.85;50.97;;;0.90;87.70;;;;;;5055424;28;20505;-79
2021/04/11 04:18:59;;;;;;;81.90;41.95;;;0.90;87.50;;;;;;5055466;28;20478;-80
2021/04/11 04:21:49;;;;;;;92.70;46.70;;;1.00;87.20;;;;;;5055243;28;20059;-80
2021/04/11 04:24:59;;;;;;;90.78;45.58;;;1.10;87.70;;;;;;5055053;28;20032;-79
2021/04/11 04:27:27;;;;;;;84.28;43.42;;;1.20;87.70;;;;;;5055162;28;20028;-79
2021/04/11 04:30:07;;;;;;;77.53;41.80;;;1.30;87.70;;;;;;5056524;28;20021;-78
2021/04/11 04:32:39;;;;;;;69.85;37.35;;;1.40;87.30;;;;;;5056204;28;20028;-78
2021/04/11 04:35:13;;;;;;;62.75;34.55;;;1.50;86.90;;;;;;5054201;28;20064;-79
2021/04/11 04:37:38;;;;;;;67.30;36.05;;;1.70;86.20;;;;;;5054070;28;20379;-78
2021/04/11 04:40:07;;;;;;;67.47;36.95;;;2.00;85.40;;;;;;5055044;28;20029;-78
2021/04/11 04:42:42;;;;;;;64.22;34.47;;;2.30;84.40;;;;;;5053594;28;20501;-78
2021/04/11 04:45:33;;;;;;;60.83;32.47;;;2.60;83.90;;;;;;5053700;28;20029;-78
2021/04/11 04:48:20;;;;;;;62.25;34.05;;;2.80;83.40;;;;;;5050595;28;20034;-78
2021/04/11 04:50:52;;;;;;;61.60;31.60;;;3.00;82.90;;;;;;5055904;28;20439;-78
2021/04/11 04:53:34;;;;;;;55.28;30.25;;;3.20;82.70;;;;;;5053347;28;20485;-78
2021/04/11 04:56:03;;;;;;;70.78;35.88;;;3.30;82.40;;;;;;5052733;28;20119;-78
2021/04/11 04:58:35;;;;;;;65.70;33.75;;;3.50;81.70;;;;;;5054156;28;20032;-78
2021/04/11 05:01:06;;;;;;;53.60;29.13;;;3.70;81.70;;;;;;5054221;28;20406;-78
2021/04/11 05:03:38;;;;;;;56.60;30.23;;;3.80;81.40;;;;;;5053699;28;20083;-78
2021/04/11 05:06:18;;;;;;;51.17;27.52;;;3.90;81.00;;;;;;5055351;28;20032;-79
2021/04/11 05:08:53;;;;;;;47.05;24.70;;;4.10;80.70;;;;;;5053910;28;20029;-79
2021/04/11 05:11:20;;;;;;;44.25;25.30;;;4.20;80.30;;;;;;5054312;28;20052;-79
2021/04/11 05:13:50;;;;;;;43.08;24.55;;;4.30;80.20;;;;;;5053420;28;20035;-79
2021/04/11 05:16:23;;;;;;;49.45;26.45;;;4.40;80.10;;;;;;5056156;28;20017;-79
2021/04/11 05:19:00;;;;;;;51.08;25.98;;;4.60;80.00;;;;;;5054915;28;20472;-79
2021/04/11 05:21:30;;;;;;;44.22;23.40;;;4.70;79.10;;;;;;5053136;28;20424;-79
2021/04/11 05:24:10;;;;;;;36.88;19.95;;;4.90;79.00;;;;;;5053939;28;20037;-79
2021/04/11 05:26:54;;;;;;;32.08;18.40;;;5.10;78.50;;;;;;5054240;28;20044;-79
2021/04/11 05:29:23;;;;;;;31.08;18.73;;;5.30;78.00;;;;;;5054637;28;20478;-79
2021/04/11 05:31:51;;;;;;;44.17;23.42;;;5.40;77.40;;;;;;5053415;28;20029;-79
2021/04/11 05:34:20;;;;;;;44.58;22.77;;;5.60;73.10;;;;;;5054155;28;20048;-79
2021/04/11 05:36:51;;;;;;;50.55;26.40;;;5.80;73.00;;;;;;5054140;28;20029;-80
2021/04/11 05:39:43;;;;;;;50.42;26.95;;;6.10;72.50;;;;;;5053880;28;20060;-80
2021/04/11 05:42:24;;;;;;;46.63;25.55;;;6.40;73.10;;;;;;5054135;28;20025;-80
2021/04/11 05:44:56;;;;;;;;;;;6.60;73.30;;;;;;5054091;28;20047;-80
2021/04/11 05:47:32;;;;;;;35.22;21.15;;;6.80;73.90;;;;;;5053979;28;20271;-79
2021/04/11 05:50:09;;;;;;;31.35;20.13;;;6.90;73.50;;;;;;5053901;28;20028;-79
2021/04/11 05:53:07;;;;;;;36.28;21.42;;;7.10;72.30;;;;;;5053961;28;20028;-78
2021/04/11 05:55:38;;;;;;;67.35;28.88;;;7.20;69.30;;;;;;5054995;28;20079;-81
2021/04/11 05:58:20;;;;;;;38.92;22.92;;;7.40;71.80;;;;;;5053988;28;20032;-80
2021/04/11 06:00:54;;;;;;;35.15;20.33;;;7.70;68.60;;;;;;5053672;28;20406;-80
2021/04/11 06:03:23;;;;;;;26.98;18.20;;;7.80;69.00;;;;;;5053564;28;20025;-81
2021/04/11 06:06:06;;;;;;;27.38;19.23;;;8.00;67.00;;;;;;5053223;28;20021;-81
2021/04/11 06:08:49;;;;;;;32.58;20.25;;;8.20;68.80;;;;;;5053117;28;20021;-81
2021/04/11 06:11:46;;;;;;;29.95;17.70;;;8.30;70.20;;;;;;5053658;28;20021;-81
2021/04/11 06:14:20;;;;;;;24.95;15.25;;;8.50;69.70;;;;;;5053081;28;20028;-81
2021/04/11 06:16:48;;;;;;;20.50;13.32;;;8.50;69.00;;;;;;5054422;28;20048;-81
2021/04/11 06:19:14;;;;;;;22.10;13.70;;;8.60;68.50;;;;;;5052618;28;20740;-80
2021/04/11 06:21:53;;;;;;;21.50;13.75;;;8.70;62.10;;;;;;5052881;28;20044;-81
2021/04/11 06:24:43;;;;;;;21.17;12.70;;;8.80;63.70;;;;;;5052397;28;20046;-80
2021/04/11 06:27:16;;;;;;;14.63;9.45;;;8.90;58.60;;;;;;5052180;28;20037;-80
2021/04/11 06:30:08;;;;;;;11.20;7.55;;;9.00;59.80;;;;;;5052251;28;20031;-80
2021/04/11 06:32:51;;;;;;;12.07;7.10;;;9.30;52.60;;;;;;5053557;28;20128;-80
2021/04/11 06:35:24;;;;;;;10.30;7.03;;;9.40;51.60;;;;;;5052453;28;20108;-80
2021/04/11 06:37:54;;;;;;;9.90;6.40;;;9.50;49.10;;;;;;5052890;28;20390;-80
2021/04/11 06:40:35;;;;;;;9.73;6.40;;;9.60;51.60;;;;;;5053538;28;20025;-80
2021/04/11 06:43:19;;;;;;;9.98;5.65;;;9.80;49.60;;;;;;5054135;28;20375;-80
2021/04/11 06:46:10;;;;;;;7.75;5.28;;;9.80;49.70;;;;;;5052528;28;20025;-80
2021/04/11 06:49:06;;;;;;;10.18;6.50;;;10.00;48.30;;;;;;5052079;28;20542;-81
2021/04/11 06:51:47;;;;;;;8.98;5.68;;;10.10;46.60;;;;;;5052249;28;20538;-81
2021/04/11 06:54:31;;;;;;;;;;;10.20;47.00;;;;;;5054018;28;20100;-80
2021/04/11 06:57:34;;;;;;;7.80;5.40;;;10.30;46.00;;;;;;5051767;28;19905;-80
2021/04/11 07:00:15;;;;;;;8.75;5.63;;;10.40;45.80;;;;;;5051260;28;20163;-80
2021/04/11 07:03:25;;;;;;;7.13;5.43;;;10.60;44.00;;;;;;5050902;28;20044;-80
2021/04/11 07:05:57;;;;;;;11.57;5.95;;;10.70;44.50;;;;;;5036203;28;20122;-80
2021/04/11 07:09:11;;;;;;;10.13;5.72;;;10.80;45.10;;;;;;5051185;28;20021;-80
2021/04/11 07:12:18;;;;;;;10.13;6.18;;;10.90;45.20;;;;;;5006226;28;20036;-80
2021/04/11 07:15:05;;;;;;;10.98;6.78;;;11.00;43.90;;;;;;5018851;28;20029;-77
2021/04/11 07:18:05;;;;;;;9.82;6.47;;;11.10;44.10;;;;;;5052116;28;20108;-78
2021/04/11 07:20:36;;;;;;;11.05;6.57;;;11.20;44.10;;;;;;5051505;28;20857;-78
2021/04/11 07:23:19;;;;;;;12.48;7.00;;;11.20;44.50;;;;;;5051204;28;20053;-78
2021/04/11 07:25:59;;;;;;;8.90;6.70;;;11.30;43.80;;;;;;5051738;28;20024;-79
2021/04/11 07:29:10;;;;;;;13.45;7.97;;;11.40;45.40;;;;;;5052624;28;20082;-79
2021/04/11 07:31:50;;;;;;;11.90;7.55;;;11.50;44.00;;;;;;5051687;28;20021;-79
2021/04/11 07:34:30;;;;;;;10.27;7.45;;;11.50;42.60;;;;;;5051252;28;20036;-78
2021/04/11 07:37:18;;;;;;;10.18;7.40;;;11.50;42.00;;;;;;5031477;28;20091;-79
2021/04/11 07:39:50;;;;;;;11.75;7.75;;;11.60;42.60;;;;;;5032859;28;20091;-79
2021/04/11 07:42:30;;;;;;;12.50;8.35;;;11.60;41.90;;;;;;5064596;28;20025;-79
2021/04/11 07:45:10;;;;;;;10.23;7.00;;;11.60;41.70;;;;;;5048467;28;20028;-79
2021/04/11 07:48:20;;;;;;;17.70;7.38;;;11.70;43.50;;;;;;5055840;28;20033;-79
2021/04/11 07:51:11;;;;;;;10.95;7.53;;;11.70;43.30;;;;;;5055207;28;20025;-79
2021/04/11 07:54:04;;;;;;;15.00;8.57;;;11.70;43.90;;;;;;5056539;28;20100;-79
2021/04/11 07:57:01;;;;;;;11.75;9.10;;;11.80;43.30;;;;;;5055494;28;20029;-80
2021/04/11 07:59:45;;;;;;;10.82;7.45;;;11.70;42.20;;;;;;5055381;28;20079;-80
2021/04/11 08:02:41;;;;;;;14.50;7.82;;;11.70;43.40;;;;;;5055603;28;20086;-80
2021/04/11 08:05:25;;;;;;;14.82;9.45;;;11.80;43.60;;;;;;5056354;28;20037;-79
2021/04/11 08:08:35;;;;;;;11.80;7.90;;;11.80;41.10;;;;;;5054989;28;20024;-79
2021/04/11 08:11:45;;;;;;;11.48;7.53;;;11.90;42.80;;;;;;5055195;28;20047;-80
2021/04/11 08:14:48;;;;;;;12.85;8.63;;;11.90;41.40;;;;;;5044891;28;20071;-79
2021/04/11 08:17:37;;;;;;;11.38;8.00;;;12.00;41.10;;;;;;5054718;28;20032;-81
2021/04/11 08:20:18;;;;;;;17.08;9.07;;;12.10;42.90;;;;;;5055175;28;20021;-82
2021/04/11 08:22:58;;;;;;;14.10;8.80;;;12.20;41.30;;;;;;5056249;28;20100;-82
2021/04/11 08:25:34;;;;;;;14.57;9.07;;;12.30;41.80;;;;;;5055718;28;20032;-81
2021/04/11 08:28:18;;;;;;;21.52;10.45;;;12.30;42.10;;;;;;5054536;28;20825;-81
2021/04/11 08:31:21;;;;;;;15.05;9.05;;;12.40;42.20;;;;;;5054425;28;20033;-81
2021/04/11 08:34:02;;;;;;;12.20;8.27;;;12.40;41.00;;;;;;5054406;28;20036;-81
2021/04/11 08:36:43;;;;;;;9.73;7.50;;;12.50;42.60;;;;;;5054416;28;20032;-82
2021/04/11 08:39:32;;;;;;;;;;;12.50;43.00;;;;;;5054863;28;20382;-82
2021/04/11 08:42:12;;;;;;;10.80;7.65;;;12.60;43.00;;;;;;5053618;28;19912;-82
2021/04/11 08:44:57;;;;;;;12.60;8.10;;;12.60;42.80;;;;;;5055565;28;20056;-82
2021/04/11 08:47:56;;;;;;;15.82;8.52;;;12.60;42.80;;;;;;5053970;28;20032;-81
2021/04/11 08:50:53;;;;;;;14.48;9.95;;;12.70;42.10;;;;;;5054318;28;20490;-75
2021/04/11 08:53:51;;;;;;;16.98;9.15;;;12.70;42.60;;;;;;5053613;28;20160;-74
2021/04/11 08:56:25;;;;;;;14.60;9.57;;;12.70;42.20;;;;;;5027682;28;20045;-76
2021/04/11 08:59:26;;;;;;;15.23;9.48;;;12.80;43.40;;;;;;5050392;28;20022;-75
2021/04/11 09:02:29;;;;;;;14.57;8.70;;;12.80;43.00;;;;;;5050490;28;20038;-75
2021/04/11 09:05:08;;;;;;;15.70;9.77;;;12.90;43.30;;;;;;5049995;28;20049;-75
2021/04/11 09:08:09;;;;;;;15.77;10.70;;;12.90;42.80;;;;;;5054569;28;20036;-75
2021/04/11 09:11:15;;;;;;;15.45;9.68;;;13.00;41.70;;;;;;5053308;28;20094;-74
2021/04/11 09:13:46;;;;;;;14.73;9.95;;;13.00;42.70;;;;;;5053756;28;20025;-75
2021/04/11 09:16:25;;;;;;;24.20;12.38;;;13.00;42.70;;;;;;5054080;28;20391;-76
2021/04/11 09:19:17;;;;;;;19.60;10.40;;;13.10;42.90;;;;;;5054509;28;20091;-76
2021/04/11 09:21:57;;;;;;;16.92;10.00;;;13.20;42.40;;;;;;5054882;28;20536;-76
2021/04/11 09:24:34;;;;;;;14.40;11.05;;;13.20;43.40;;;;;;5055365;28;20451;-76
2021/04/11 09:27:24;;;;;;;13.82;9.85;;;13.20;42.60;;;;;;5053569;28;20029;-76
2021/04/11 09:30:22;;;;;;;14.57;10.07;;;13.30;42.70;;;;;;5054104;28;20029;-75
2021/04/11 09:33:20;;;;;;;12.57;8.88;;;13.40;43.10;;;;;;5055149;28;20100;-75
2021/04/11 09:36:08;;;;;;;26.88;14.85;;;13.50;42.50;;;;;;5051388;28;20108;-77
2021/04/11 09:38:56;;;;;;;18.13;11.55;;;13.60;43.40;;;;;;5053275;28;20382;-77
2021/04/11 09:41:59;;;;;;;16.95;10.90;;;13.60;42.50;;;;;;5054135;28;20364;-76
2021/04/11 09:44:40;;;;;;;15.45;10.10;;;13.60;42.40;;;;;;5052802;28;20021;-77
2021/04/11 09:47:36;;;;;;;14.02;9.57;;;13.60;41.80;;;;;;5053875;28;20024;-76
2021/04/11 09:50:33;;;;;;;11.95;9.02;;;13.60;42.50;;;;;;5052896;28;20025;-77
2021/04/11 09:53:25;;;;;;;14.13;10.43;;;13.70;42.20;;;;;;5052578;28;20025;-77
2021/04/11 09:56:09;;;;;;;14.68;11.10;;;13.70;42.00;;;;;;5053147;28;20124;-77
2021/04/11 09:58:47;;;;;;;13.45;9.27;;;13.80;42.40;;;;;;5052939;28;20060;-78
2021/04/11 10:01:15;;;;;;;26.73;12.38;;;13.80;40.00;;;;;;5054072;28;20025;-77
2021/04/11 10:04:08;;;;;;;16.98;9.73;;;13.80;41.10;;;;;;5053040;28;20044;-77
2021/04/11 10:07:01;;;;;;;11.85;7.93;;;13.90;41.90;;;;;;5052776;28;20083;-77
2021/04/11 10:09:35;;;;;;;12.95;9.13;;;14.00;41.50;;;;;;5051763;28;20029;-77
2021/04/11 10:12:14;;;;;;;12.20;8.63;;;14.00;41.60;;;;;;5054197;28;20025;-77
2021/04/11 10:14:40;;;;;;;10.38;7.18;;;14.10;41.80;;;;;;5052739;28;20059;-77
2021/04/11 10:17:24;;;;;;;11.35;8.43;;;14.10;42.00;;;;;;5054125;28;20111;-78
2021/04/11 10:19:55;;;;;;;11.18;7.68;;;14.00;40.20;;;;;;5052725;28;20032;-78
2021/04/11 10:22:47;;;;;;;10.93;7.75;;;14.00;40.60;;;;;;5052710;28;20562;-77
2021/04/11 10:25:22;;;;;;;11.75;8.35;;;14.10;41.40;;;;;;5052279;28;20044;-78
2021/04/11 10:28:11;;;;;;;12.40;7.80;;;14.10;41.80;;;;;;5052092;28;20544;-77
2021/04/11 10:30:38;;;;;;;13.55;9.40;;;14.30;41.00;;;;;;5032103;28;20080;-78
2021/04/11 10:33:21;;;;;;;9.75;8.00;;;14.20;39.20;;;;;;5033202;28;20116;-77
2021/04/11 10:36:03;;;;;;;12.13;9.05;;;14.30;40.10;;;;;;5033323;28;20049;-78
2021/04/11 10:38:58;;;;;;;12.82;9.55;;;14.30;40.00;;;;;;5032350;28;20030;-80
2021/04/11 10:41:38;;;;;;;11.05;8.00;;;14.30;38.80;;;;;;5031683;28;20534;-78
2021/04/11 10:44:04;;;;;;;10.85;7.43;;;14.30;40.00;;;;;;5040405;28;20375;-77
2021/04/11 10:46:42;;;;;;;10.15;7.70;;;14.30;40.60;;;;;;5051582;28;20087;-77
2021/04/11 10:49:25;;;;;;;11.70;8.70;;;14.40;40.50;;;;;;5053207;28;20029;-78
2021/04/11 10:52:22;;;;;;;12.02;8.35;;;14.50;40.20;;;;;;5051792;28;20028;-78
2021/04/11 10:55:05;;;;;;;13.02;9.38;;;14.60;40.70;;;;;;5031463;28;20033;-79
2021/04/11 10:57:49;;;;;;;19.02;8.90;;;14.60;40.20;;;;;;5031661;28;20040;-80
2021/04/11 11:00:18;;;;;;;12.48;7.90;;;14.70;40.00;;;;;;5031450;28;20029;-78
2021/04/11 11:02:58;;;;;;;19.02;14.00;;;14.80;40.40;;;;;;5032933;28;20061;-80
2021/04/11 11:05:46;;;;;;;14.30;10.27;;;14.80;40.10;;;;;;5036135;28;20041;-82
2021/04/11 11:08:46;;;;;;;18.85;12.15;;;15.00;40.50;;;;;;5032870;28;20026;-77
2021/04/11 11:11:30;;;;;;;14.73;8.07;;;15.00;38.90;;;;;;5048538;28;20024;-78
2021/04/11 11:14:27;;;;;;;13.80;8.15;;;15.10;40.00;;;;;;5052054;28;20025;-78
2021/04/11 11:17:10;;;;;;;13.95;8.23;;;15.20;39.30;;;;;;5053104;28;20455;-79
2021/04/11 11:20:03;;;;;;;17.77;8.00;;;15.20;39.20;;;;;;5052002;28;20391;-77
2021/04/11 11:23:05;;;;;;;27.63;13.95;;;15.20;39.70;;;;;;5051633;28;20025;-75
2021/04/11 11:25:43;;;;;;;52.78;29.25;;;15.30;39.20;;;;;;5033433;28;20060;-74
2021/04/11 11:28:47;;;;;;;17.08;12.00;;;15.40;39.60;;;;;;5041838;28;20107;-75
2021/04/11 11:31:44;;;;;;;10.70;8.35;;;15.50;39.30;;;;;;5053572;28;20029;-78
2021/04/11 11:34:33;;;;;;;10.55;8.18;;;15.50;38.10;;;;;;5032131;28;20025;-73
2021/04/11 11:37:26;;;;;;;12.20;8.27;;;15.60;38.80;;;;;;5064958;28;20029;-73
2021/04/11 11:40:04;;;;;;;10.63;8.45;;;15.60;37.80;;;;;;5048156;28;20021;-72
2021/04/11 11:42:42;;;;;;;14.15;8.95;;;15.70;38.30;;;;;;5051524;28;20029;-70
2021/04/11 11:45:16;;;;;;;11.82;8.13;;;15.70;37.40;;;;;;5053152;28;20025;-71
2021/04/11 11:48:15;;;;;;;16.38;9.20;;;15.80;38.50;;;;;;5053772;28;20028;-71
2021/04/11 11:51:09;;;;;;;11.38;7.57;;;15.80;37.60;;;;;;5052550;28;20414;-70
2021/04/11 11:53:59;;;;;;;11.40;8.15;;;15.90;37.90;;;;;;5051875;28;20025;-70
2021/04/11 11:56:34;;;;;;;16.17;9.77;;;15.90;37.50;;;;;;5053243;28;20025;-71
2021/04/11 11:59:06;;;;;;;13.90;9.07;;;15.90;37.60;;;;;;5052874;28;20025;-73
2021/04/11 12:01:46;;;;;;;11.85;8.75;;;16.10;38.00;;;;;;5053418;28;20351;-71
2021/04/11 12:04:45;;;;;;;14.70;10.25;;;16.00;36.90;;;;;;5068253;28;20045;-71
2021/04/11 12:07:39;;;;;;;15.30;9.80;;;16.10;37.40;;;;;;5047434;28;20039;-72
2021/04/11 12:10:13;;;;;;;13.43;9.20;;;16.20;37.10;;;;;;5050642;28;20032;-73
2021/04/11 12:12:53;;;;;;;13.00;8.52;;;16.30;37.40;;;;;;5051530;28;20036;-74
2021/04/11 12:15:38;;;;;;;16.13;7.77;;;16.50;37.50;;;;;;5052724;28;20056;-73
2021/04/11 12:18:19;;;;;;;12.93;7.72;;;16.80;38.20;;;;;;5051424;28;20025;-76
2021/04/11 12:20:49;;;;;;;12.95;8.45;;;16.90;37.00;;;;;;5051587;28;20613;-74
2021/04/11 12:23:31;;;;;;;20.33;8.75;;;17.10;36.70;;;;;;5051641;28;20466;-71
2021/04/11 12:26:16;;;;;;;11.18;8.60;;;17.50;37.40;;;;;;5051244;28;20532;-76
2021/04/11 12:28:43;;;;;;;12.82;8.45;;;17.60;36.40;;;;;;5050808;28;20029;-78
2021/04/11 12:31:45;;;;;;;13.25;10.00;;;17.80;37.10;;;;;;5051748;28;20029;-73
2021/04/11 12:34:21;;;;;;;10.90;8.60;;;18.20;36.90;;;;;;5041356;28;20086;-68
2021/04/11 12:37:05;;;;;;;9.32;7.72;;;18.50;33.80;;;;;;5050299;28;20037;-70
2021/04/11 12:39:32;;;;;;;12.93;8.40;;;18.70;35.20;;;;;;5053559;28;20055;-70
2021/04/11 12:42:29;;;;;;;10.05;7.93;;;18.80;34.20;;;;;;5053403;28;20352;-70
2021/04/11 12:45:25;;;;;;;10.43;7.65;;;19.30;35.70;;;;;;5054286;28;20403;-70
2021/04/11 12:48:12;;;;;;;12.73;7.97;;;19.90;34.90;;;;;;5053157;28;20017;-71
2021/04/11 12:51:07;;;;;;;8.32;7.45;;;20.00;33.20;;;;;;5054712;28;20075;-72
2021/04/11 12:53:54;;;;;;;12.88;8.60;;;20.60;34.00;;;;;;5045258;28;20037;-72
2021/04/11 12:56:21;;;;;;;9.15;7.10;;;20.50;31.80;;;;;;5053485;28;20048;-72
2021/04/11 12:59:01;;;;;;;11.10;7.60;;;20.70;33.50;;;;;;5052728;28;20360;-73
2021/04/11 13:01:53;;;;;;;;;;;21.10;31.90;;;;;;5053996;28;20028;-72
2021/04/11 13:04:41;;;;;;;10.05;8.10;;;20.80;31.30;;;;;;5036930;28;19924;-72
2021/04/11 13:07:16;;;;;;;10.75;8.52;;;21.30;32.20;;;;;;5053111;28;20467;-73
2021/04/11 13:09:44;;;;;;;11.23;8.25;;;21.50;32.50;;;;;;5053057;28;20025;-73
2021/04/11 13:12:47;;;;;;;10.63;8.40;;;21.50;31.30;;;;;;5052013;28;20029;-72
2021/04/11 13:15:31;;;;;;;9.38;8.23;;;21.60;32.00;;;;;;5051851;28;20162;-72
2021/04/11 13:18:32;;;;;;;12.55;9.02;;;21.80;31.40;;;;;;5051446;28;20645;-72
2021/04/11 13:21:03;;;;;;;11.52;8.98;;;21.60;31.00;;;;;;5051250;28;20029;-72
2021/04/11 13:23:40;;;;;;;12.00;9.27;;;21.30;31.10;;;;;;5051682;28;20033;-72
2021/04/11 13:26:10;;;;;;;10.23;8.70;;;21.50;31.60;;;;;;5054486;28;20107;-72
2021/04/11 13:28:47;;;;;;;11.45;9.73;;;21.50;31.20;;;;;;5054300;28;20025;-71
2021/04/11 13:31:21;;;;;;;11.98;9.20;;;20.70;31.30;;;;;;5055501;28;20103;-72
2021/04/11 13:34:17;;;;;;;10.98;9.35;;;21.00;31.80;;;;;;5054027;28;20399;-72
2021/04/11 13:36:49;;;;;;;10.65;8.90;;;21.00;31.50;;;;;;5054159;28;20021;-74